Rhodes, Greece

1:43 PM EET on November 28, 2014 (GMT +0200)
Diagoras | Change Station
CLOSE
Current Station
Airport
Location: Rhodes,
Elevation: 36 ft
Nearby Weather Stations

Elev 36 ft 36.41 °N, 28.09 °E | Updated 23 minutes ago

Scattered Clouds
Scattered Clouds
63 °F
Feels Like 63 °F
N
4
Wind Variable Wind from West

Today
High -- | Low -- °F
--% Chance of Precip.
Yesterday
High -- | Low -- °F
Precip. -- in
6:57 AM 4:53 PM
Waxing Crescent, 39% visible
Pressure 30.18 in
Visibility 6.2 miles
Clouds Few 1000 ft
Scattered Clouds 1800 ft
Dew Point 55 °F
Humidity 77%
Rainfall 0.00 in
Snow Depth Not available.
UV 2 out of 12
Pollen Not available.
Air Quality Not available.
Flu Activity Not available.
METAR LGRP 281120Z 27003KT 9999 FEW010 SCT018 17/13 Q1022 NOSIG

More Conditions Fewer Conditions

Pressure 30.18 in
Visibility 6.2 miles
Clouds Few 1000 ft
Scattered Clouds 1800 ft
Dew Point 55 °F
Humidity 77%
Rainfall 0.00 in
Snow Depth Not available.
UV 2 out of 12
Pollen Not available.
Air Quality Not available.
Flu Activity Not available.
METAR LGRP 281120Z 27003KT 9999 FEW010 SCT018 17/13 Q1022 NOSIG

More Conditions Fewer Conditions

10-Day Weather Forecast

Almanac

Astronomy

Nov. 28, 2014 Rise Set
Actual Time
Civil Twilight
Nautical Twilight
Astronomical Twilight
Moon
Length of Visible Light
Length of Day
Tomorrow will be .
, % of the Moon is Illuminated

Today's Extremes

Country Highs Country Lows

Community

WunderPhotos

Upload Photos

1,774,198 photos uploaded!

WunderBlogs® & News

Nearby

Air Quality

  Air Quality AQ Index Pollutant
Not available.

Snow Depth

Station Depth Elevation

Earthquake Activity

City Distance Mag. Time & Date
Minimum magnitude displayed is 2.5.

Coastal Water Temperatures

Place Temperature

Nearby Weather Stations